KGLD/GLD METAR and TAF weather

Enter ICAO airport designator
Station Type Date Time Source
KGLD METAR 2020/07/15 08:53 UTC NOAA

KGLD 150853Z AUTO 06005KT 8SM OVC006 18/16 A3007 RMK AO2 SLP149 T01780161 53021


Station Type Date Time Source
KGLD Decoded METAR 2020/07/15 08:53 UTC NOAA

GOODLAND RENNER FIELD, KS, United States (KGLD) 39-22N 101-42W 1114M
Jul 15, 2020 - 04:53 AM EDT / 2020.07.15 0853 UTC
Wind: from the ENE (060 degrees) at 6 MPH (5 KT):0
Visibility: 8 mile(s):0
Sky conditions: overcast
Temperature: 64.0 F (17.8 C)
Dew Point: 61.0 F (16.1 C)
Relative Humidity: 89%
Pressure (altimeter): 30.07 in. Hg (1018 hPa)
Pressure tendency: 0.06 inches (2.1 hPa) higher than three hours ago
ob: KGLD 150853Z AUTO 06005KT 8SM OVC006 18/16 A3007 RMK AO2 SLP149 T01780161 53021
cycle: 9

Station Type Date Time Source
KGLD TAF 2020/07/15 10:40 UTC NOAA

TAF
AMD KGLD 150937Z 1510/1606 06005KT P6SM OVC008
TEMPO 1514/1516 OVC020
FM151600 06009KT P6SM BKN025
FM151900 09007KT P6SM SCT025 BKN040
FM160000 17007KT P6SM SCT070

Example: see airport list